Time;durP1;ratioP1;P1;durP2;ratioP2;P2;SDS_P1;SDS_P2;PMS_P1;PMS_P2;Temp;Humidity;BMP_temperature;BMP_pressure;BME280_temperature;BME280_humidity;BME280_pressure;Samples;Min_cycle;Max_cycle;Signal;HPM_P1;HPM_P2
2021/01/15 00:01:27;;;;;;;15.63;8.40;;;-0.80;99.90;;;;;;5088960;28;20824;-73
2021/01/15 00:03:55;;;;;;;11.20;9.00;;;-0.80;99.90;;;;;;5135605;28;20463;-73
2021/01/15 00:06:24;;;;;;;10.17;8.07;;;-0.80;99.90;;;;;;5124975;28;20432;-73
2021/01/15 00:08:53;;;;;;;12.20;8.90;;;-0.80;99.90;;;;;;5117114;28;20432;-73
2021/01/15 00:11:22;;;;;;;13.80;10.27;;;-0.80;99.90;;;;;;5116906;28;20633;-73
2021/01/15 00:13:50;;;;;;;13.83;8.30;;;-0.80;99.90;;;;;;5116835;28;20810;-78
2021/01/15 00:16:18;;;;;;;13.43;9.83;;;-0.80;99.90;;;;;;5115253;28;20470;-76
2021/01/15 00:18:47;;;;;;;11.83;9.43;;;-0.80;99.90;;;;;;5117191;28;20446;-74
2021/01/15 00:21:23;;;;;;;17.20;9.33;;;-0.80;99.90;;;;;;5116340;28;21001;-74
2021/01/15 00:23:51;;;;;;;13.40;8.30;;;-0.80;99.90;;;;;;5116119;28;20455;-74
2021/01/15 00:26:20;;;;;;;14.60;9.80;;;-0.80;99.90;;;;;;5098479;28;20431;-74
2021/01/15 00:28:49;;;;;;;12.63;9.30;;;-0.80;99.90;;;;;;5097642;28;20438;-73
2021/01/15 00:31:18;;;;;;;12.47;8.53;;;-0.80;99.90;;;;;;5114908;28;20464;-74
2021/01/15 00:33:46;;;;;;;14.23;9.13;;;-0.70;99.90;;;;;;5097666;28;20860;-73
2021/01/15 00:36:14;;;;;;;11.87;7.93;;;-0.70;99.90;;;;;;5080502;28;20443;-74
2021/01/15 00:38:42;;;;;;;14.80;8.67;;;-0.70;99.90;;;;;;5081121;28;20527;-73
2021/01/15 00:41:09;;;;;;;12.53;8.37;;;-0.70;99.90;;;;;;5116534;28;20460;-73
2021/01/15 00:43:37;;;;;;;12.30;8.20;;;-0.70;99.90;;;;;;5098277;28;20462;-74
2021/01/15 00:46:08;;;;;;;9.47;7.77;;;-0.70;99.90;;;;;;5114748;28;20510;-73
2021/01/15 00:48:35;;;;;;;12.53;8.03;;;-0.70;99.90;;;;;;5081380;28;20444;-74
2021/01/15 00:51:08;;;;;;;14.07;9.60;;;-0.60;99.90;;;;;;5080346;28;20454;-73
2021/01/15 00:53:37;;;;;;;12.13;8.43;;;-0.70;99.90;;;;;;5080854;28;20427;-74
2021/01/15 00:56:05;;;;;;;13.97;9.07;;;-0.70;99.90;;;;;;5097435;28;20492;-73
2021/01/15 00:58:34;;;;;;;12.00;8.23;;;-0.70;99.90;;;;;;5124299;27;20439;-74
2021/01/15 01:01:01;;;;;;;12.20;8.90;;;-0.70;99.90;;;;;;5142324;27;20450;-76
2021/01/15 01:03:43;;;;;;;14.13;8.10;;;-0.70;99.90;;;;;;5118783;27;20558;-74
2021/01/15 01:06:13;;;;;;;9.93;7.10;;;-0.70;99.90;;;;;;5135408;27;20472;-74
2021/01/15 01:08:41;;;;;;;12.30;7.43;;;-0.70;99.90;;;;;;5117633;27;21009;-75
2021/01/15 01:11:12;;;;;;;14.83;8.83;;;-0.70;99.90;;;;;;5117146;27;20415;-74
2021/01/15 01:13:40;;;;;;;13.43;6.70;;;-0.70;99.90;;;;;;5135939;27;20430;-73
2021/01/15 01:16:08;;;;;;;11.50;6.90;;;-0.80;99.90;;;;;;5130867;27;20462;-74
2021/01/15 01:18:35;;;;;;;12.07;7.33;;;-0.90;99.90;;;;;;5133369;27;20447;-74
2021/01/15 01:21:03;;;;;;;10.83;7.00;;;-1.00;99.90;;;;;;5135555;27;20454;-74
2021/01/15 01:23:32;;;;;;;11.67;7.00;;;-1.10;99.90;;;;;;5117522;27;20554;-76
2021/01/15 01:26:00;;;;;;;11.10;7.93;;;-1.10;99.90;;;;;;5135511;27;20794;-73
2021/01/15 01:28:28;;;;;;;11.00;6.40;;;-1.20;99.90;;;;;;5117100;27;20438;-73
2021/01/15 01:30:55;;;;;;;12.23;7.70;;;-1.20;99.90;;;;;;5134756;27;20427;-76
2021/01/15 01:33:23;;;;;;;12.23;7.70;;;-1.30;99.90;;;;;;5134658;27;20423;-75
2021/01/15 01:35:50;;;;;;;14.00;7.70;;;-1.40;99.90;;;;;;5135937;27;20518;-74
2021/01/15 01:38:18;;;;;;;10.83;6.80;;;-1.40;99.90;;;;;;5135801;27;20870;-77
2021/01/15 01:40:47;;;;;;;9.17;7.50;;;-1.50;99.90;;;;;;5116860;27;20434;-73
2021/01/15 01:43:14;;;;;;;12.33;6.27;;;-1.50;99.90;;;;;;5117941;27;20432;-73
2021/01/15 01:45:42;;;;;;;10.00;7.30;;;-1.50;99.90;;;;;;5134674;27;20447;-72
2021/01/15 01:48:09;;;;;;;11.13;6.90;;;-1.60;99.90;;;;;;5135134;27;20447;-74
2021/01/15 01:50:41;;;;;;;12.40;8.20;;;-1.60;99.90;;;;;;5118489;27;20449;-74
2021/01/15 01:53:13;;;;;;;11.80;9.80;;;-1.60;99.90;;;;;;5136145;27;20503;-76
2021/01/15 01:55:42;;;;;;;12.47;8.30;;;-1.70;99.90;;;;;;5117334;27;20435;-76
2021/01/15 01:58:16;;;;;;;12.20;8.20;;;-1.70;99.90;;;;;;5135525;27;20492;-73
2021/01/15 02:00:47;;;;;;;13.70;8.40;;;-1.80;99.90;;;;;;5138788;27;20430;-74
2021/01/15 02:03:17;;;;;;;16.20;8.90;;;-1.90;99.90;;;;;;5145000;27;20459;-74
2021/01/15 02:05:54;;;;;;;12.90;7.00;;;-1.90;99.90;;;;;;5149857;27;20435;-72
2021/01/15 02:08:25;;;;;;;13.53;8.87;;;-1.90;99.90;;;;;;5144285;27;20426;-73
2021/01/15 02:11:02;;;;;;;12.67;9.00;;;-2.00;99.90;;;;;;5127492;27;20510;-76
2021/01/15 02:13:40;;;;;;;13.97;9.23;;;-2.00;99.90;;;;;;5145658;27;20422;-73
2021/01/15 02:16:12;;;;;;;8.73;7.50;;;-2.00;99.90;;;;;;5143740;28;20465;-75
2021/01/15 02:18:45;;;;;;;11.37;8.10;;;-2.10;99.90;;;;;;5143640;28;20457;-77
2021/01/15 02:21:53;;;;;;;10.30;7.60;;;-2.10;99.90;;;;;;5141766;28;20446;-73
2021/01/15 02:24:34;;;;;;;12.17;7.50;;;-2.10;99.90;;;;;;5135252;28;20542;-76
2021/01/15 02:27:20;;;;;;;12.10;8.17;;;-2.00;99.90;;;;;;5099761;28;20446;-73
2021/01/15 02:30:09;;;;;;;12.50;7.20;;;-2.10;99.90;;;;;;5135893;28;20427;-73
2021/01/15 02:32:47;;;;;;;13.33;7.73;;;-2.10;99.90;;;;;;5115290;28;20471;-73
2021/01/15 02:35:36;;;;;;;11.20;7.70;;;-2.10;99.90;;;;;;5108863;28;20404;-76
2021/01/15 02:38:19;;;;;;;13.83;8.00;;;-2.10;99.90;;;;;;5117747;28;20416;-73
2021/01/15 02:41:10;;;;;;;9.30;6.70;;;-2.10;99.90;;;;;;5118360;28;20442;-73
2021/01/15 02:43:41;;;;;;;12.47;6.87;;;-2.20;99.90;;;;;;5134458;28;20562;-74
2021/01/15 02:46:12;;;;;;;9.20;6.83;;;-2.30;99.90;;;;;;5147451;27;20502;-74
2021/01/15 02:48:47;;;;;;;13.13;6.20;;;-2.20;99.90;;;;;;5158118;27;20501;-73
2021/01/15 02:51:17;;;;;;;12.57;6.20;;;-2.30;99.90;;;;;;5159190;27;20483;-74
2021/01/15 02:53:48;;;;;;;8.40;5.67;;;-2.30;99.90;;;;;;5158812;27;20430;-73
2021/01/15 02:56:16;;;;;;;9.80;7.10;;;-2.40;99.90;;;;;;5141058;27;20431;-74
2021/01/15 02:58:43;;;;;;;11.97;6.93;;;-2.60;99.90;;;;;;5158112;27;20492;-74
2021/01/15 03:01:11;;;;;;;10.97;8.17;;;-2.60;99.90;;;;;;5135635;28;20455;-73
2021/01/15 03:03:49;;;;;;;9.37;6.97;;;-2.70;99.90;;;;;;5111307;28;20435;-73
2021/01/15 03:06:28;;;;;;;11.53;7.10;;;-2.70;99.90;;;;;;5119971;28;20445;-74
2021/01/15 03:08:58;;;;;;;7.90;6.40;;;-2.80;99.90;;;;;;5120273;28;20428;-73
2021/01/15 03:11:27;;;;;;;12.10;6.57;;;-2.80;99.90;;;;;;5101922;28;20431;-74
2021/01/15 03:13:55;;;;;;;10.80;7.30;;;-2.80;99.90;;;;;;5102304;28;20428;-73
2021/01/15 03:16:25;;;;;;;9.93;6.70;;;-2.80;99.90;;;;;;5129253;27;20980;-72
2021/01/15 03:18:57;;;;;;;9.33;6.83;;;-2.70;99.90;;;;;;5115016;27;20480;-73
2021/01/15 03:21:27;;;;;;;13.33;8.30;;;-2.70;99.90;;;;;;5139716;27;20801;-74
2021/01/15 03:23:56;;;;;;;11.30;7.57;;;-2.70;99.90;;;;;;5120901;27;20459;-76
2021/01/15 03:26:26;;;;;;;10.57;7.50;;;-2.70;99.90;;;;;;5139432;27;20469;-73
2021/01/15 03:28:53;;;;;;;10.40;7.40;;;-2.80;99.90;;;;;;5120569;27;20438;-74
2021/01/15 03:31:21;;;;;;;11.27;7.40;;;-2.80;99.90;;;;;;5138234;27;20462;-73
2021/01/15 03:33:49;;;;;;;11.20;7.83;;;-2.80;99.90;;;;;;5139102;27;20435;-75
2021/01/15 03:36:17;;;;;;;11.47;8.67;;;-2.80;99.90;;;;;;5120962;27;20772;-72
2021/01/15 03:38:44;;;;;;;14.53;8.47;;;-2.90;99.90;;;;;;5139236;27;20773;-75
2021/01/15 03:41:11;;;;;;;13.87;9.10;;;-2.90;99.90;;;;;;5139103;27;20514;-75
2021/01/15 03:43:38;;;;;;;10.53;8.73;;;-2.90;99.90;;;;;;5120075;27;20484;-73
2021/01/15 03:46:05;;;;;;;11.30;7.50;;;-2.90;99.90;;;;;;5137328;27;20803;-74
2021/01/15 03:48:33;;;;;;;12.23;8.70;;;-2.90;99.90;;;;;;5138680;27;20443;-74
2021/01/15 03:51:01;;;;;;;11.10;8.20;;;-3.00;99.90;;;;;;5120076;27;20491;-76
2021/01/15 03:53:29;;;;;;;15.23;8.80;;;-3.00;99.90;;;;;;5138587;27;20430;-73
2021/01/15 03:55:57;;;;;;;8.97;7.60;;;-3.10;99.90;;;;;;5121817;27;20434;-76
2021/01/15 03:58:25;;;;;;;11.67;8.07;;;-3.10;99.90;;;;;;5122807;27;20588;-74
2021/01/15 04:00:52;;;;;;;11.70;7.30;;;-3.10;99.90;;;;;;5140545;27;20975;-73
2021/01/15 04:03:23;;;;;;;11.10;7.60;;;-3.10;99.90;;;;;;5102698;27;20431;-74
2021/01/15 04:05:54;;;;;;;12.00;7.80;;;-3.20;99.90;;;;;;5137672;27;20465;-75
2021/01/15 04:08:22;;;;;;;13.87;8.80;;;-3.20;99.90;;;;;;5138270;27;20830;-73
2021/01/15 04:10:51;;;;;;;8.30;6.73;;;-3.20;99.90;;;;;;5119179;27;20863;-76
2021/01/15 04:13:18;;;;;;;11.90;7.87;;;-3.20;99.90;;;;;;5137265;27;20537;-75
2021/01/15 04:15:45;;;;;;;11.13;7.50;;;-3.20;99.90;;;;;;5114286;28;20456;-72
2021/01/15 04:18:13;;;;;;;15.37;8.10;;;-3.20;99.90;;;;;;5116312;28;20423;-76
2021/01/15 04:20:40;;;;;;;8.23;6.40;;;-3.20;99.90;;;;;;5098118;28;20828;-76
2021/01/15 04:23:11;;;;;;;14.57;7.67;;;-3.20;99.90;;;;;;5117117;28;20268;-73
2021/01/15 04:25:38;;;;;;;12.50;7.67;;;-3.20;99.90;;;;;;5098867;28;20459;-74
2021/01/15 04:28:08;;;;;;;9.20;7.53;;;-3.20;99.90;;;;;;5116867;28;20434;-72
2021/01/15 04:30:37;;;;;;;9.37;6.67;;;-3.20;99.90;;;;;;5121597;27;20483;-74
2021/01/15 04:33:04;;;;;;;13.48;8.70;;;-3.20;99.90;;;;;;5141319;27;20560;-72
2021/01/15 04:35:32;;;;;;;10.40;7.30;;;-3.30;99.90;;;;;;5153193;27;20218;-75
2021/01/15 04:37:58;;;;;;;11.90;6.50;;;-3.30;99.90;;;;;;5119615;27;20510;-73
2021/01/15 04:40:26;;;;;;;10.25;6.88;;;-3.30;99.90;;;;;;5136872;27;20925;-76
2021/01/15 04:42:58;;;;;;;9.60;7.78;;;-3.40;99.90;;;;;;5119096;27;20189;-75
2021/01/15 04:45:28;;;;;;;12.80;6.80;;;-3.40;99.90;;;;;;5117912;27;20217;-72
2021/01/15 04:48:03;;;;;;;13.20;7.20;;;-3.50;99.90;;;;;;5124833;27;20240;-74
2021/01/15 04:50:31;;;;;;;12.13;7.53;;;-3.50;99.90;;;;;;5136995;27;20558;-72
2021/01/15 04:53:03;;;;;;;15.93;7.82;;;-3.50;99.90;;;;;;5136623;27;20497;-73
2021/01/15 04:55:34;;;;;;;10.65;6.90;;;-3.50;99.90;;;;;;5136997;27;20242;-73
2021/01/15 05:00:59;;;;;;;12.33;6.80;;;-3.50;99.90;;;;;;5136903;27;20656;-75
2021/01/15 05:03:27;;;;;;;12.87;7.60;;;-3.40;99.90;;;;;;5126096;27;20443;-72
2021/01/15 05:05:59;;;;;;;11.57;6.77;;;-3.40;99.90;;;;;;5136706;27;20554;-72
2021/01/15 05:08:28;;;;;;;11.68;7.13;;;-3.40;99.90;;;;;;5117666;27;20439;-72
2021/01/15 05:10:56;;;;;;;8.23;6.18;;;-3.40;99.90;;;;;;5117216;27;20190;-73
2021/01/15 05:13:25;;;;;;;15.20;8.20;;;-3.40;99.90;;;;;;5118197;27;20189;-73
2021/01/15 05:15:53;;;;;;;11.30;7.53;;;-3.40;99.90;;;;;;5134777;27;20537;-74
2021/01/15 05:21:14;;;;;;;10.57;7.75;;;-3.40;99.90;;;;;;5117627;27;20423;-73
2021/01/15 05:23:41;;;;;;;11.43;7.30;;;-3.40;99.90;;;;;;5118405;27;20216;-74
2021/01/15 05:26:08;;;;;;;13.70;6.70;;;-3.50;99.90;;;;;;5136168;27;20225;-73
2021/01/15 05:28:41;;;;;;;13.40;7.80;;;-3.50;99.90;;;;;;5118320;27;20185;-73
2021/01/15 05:31:10;;;;;;;11.88;8.00;;;-3.50;99.90;;;;;;5117592;27;20597;-77
2021/01/15 05:33:41;;;;;;;15.10;7.87;;;-3.60;99.90;;;;;;5118380;27;20231;-75
2021/01/15 05:36:08;;;;;;;9.27;6.78;;;-3.60;99.90;;;;;;5101218;27;20540;-72
2021/01/15 05:38:37;;;;;;;9.87;6.33;;;-3.60;99.90;;;;;;5136747;27;20265;-74
2021/01/15 05:41:04;;;;;;;11.37;8.60;;;-3.60;99.90;;;;;;5136633;27;20480;-75
2021/01/15 05:43:33;;;;;;;12.50;7.13;;;-3.60;99.90;;;;;;5117992;27;20822;-77
2021/01/15 05:46:06;;;;;;;11.40;8.40;;;-3.60;99.90;;;;;;5135427;27;20489;-75
2021/01/15 05:48:39;;;;;;;12.43;8.60;;;-3.70;99.90;;;;;;5118494;27;20206;-74
2021/01/15 05:51:22;;;;;;;9.73;6.65;;;-3.80;99.90;;;;;;5117689;27;20435;-77
2021/01/15 05:53:49;;;;;;;11.80;7.85;;;-3.70;99.90;;;;;;5118631;27;20197;-76
2021/01/15 05:56:19;;;;;;;10.67;6.73;;;-3.80;99.90;;;;;;5137150;27;20212;-75
2021/01/15 05:59:03;;;;;;;12.97;7.53;;;-3.90;99.90;;;;;;5124945;27;20467;-75
2021/01/15 06:01:40;;;;;;;11.37;7.50;;;-3.90;99.90;;;;;;5095096;28;20483;-78
2021/01/15 06:04:10;;;;;;;11.43;8.00;;;-3.90;99.90;;;;;;5081162;28;20536;-75
2021/01/15 06:06:41;;;;;;;12.77;8.38;;;-3.90;99.90;;;;;;5097929;28;20532;-75
2021/01/15 06:09:10;;;;;;;13.75;6.63;;;-3.90;99.90;;;;;;5098164;28;20178;-75
2021/01/15 06:11:40;;;;;;;11.93;7.05;;;-3.90;99.90;;;;;;5117571;28;20527;-75
2021/01/15 06:14:20;;;;;;;14.77;7.43;;;-4.00;99.90;;;;;;5089579;28;20231;-75
2021/01/15 06:16:48;;;;;;;10.77;7.32;;;-4.00;99.90;;;;;;5111982;28;20229;-75
2021/01/15 06:19:16;;;;;;;10.00;6.80;;;-4.00;99.90;;;;;;5108706;28;20233;-76
2021/01/15 06:21:52;;;;;;;12.40;6.88;;;-4.00;99.90;;;;;;5118121;28;20431;-74
2021/01/15 06:24:23;;;;;;;10.82;7.03;;;-4.00;99.90;;;;;;5112271;28;20216;-74
2021/01/15 06:27:05;;;;;;;9.57;6.03;;;-4.00;99.90;;;;;;5098833;28;20249;-75
2021/01/15 06:29:43;;;;;;;13.45;9.10;;;-3.90;99.90;;;;;;5116011;28;20196;-76
2021/01/15 06:32:25;;;;;;;8.53;6.37;;;-3.80;99.90;;;;;;5113717;28;20329;-76
2021/01/15 06:34:54;;;;;;;14.03;8.03;;;-3.70;99.90;;;;;;5097328;28;20523;-76
2021/01/15 06:37:23;;;;;;;10.82;7.47;;;-3.70;99.90;;;;;;5080217;28;20464;-75
2021/01/15 06:40:02;;;;;;;11.45;8.13;;;-3.70;99.90;;;;;;5096568;28;20193;-76
2021/01/15 06:42:31;;;;;;;13.40;8.20;;;-3.70;99.90;;;;;;5080812;28;20638;-75
2021/01/15 06:44:59;;;;;;;10.68;7.45;;;-3.70;99.90;;;;;;5098709;28;20494;-76
2021/01/15 06:47:27;;;;;;;10.07;7.77;;;-3.70;99.90;;;;;;5097756;28;20239;-75
2021/01/15 06:50:01;;;;;;;12.73;7.47;;;-3.70;99.90;;;;;;5098204;28;20436;-77
2021/01/15 06:52:32;;;;;;;11.80;7.93;;;-3.60;99.90;;;;;;5116892;28;20641;-77
2021/01/15 06:55:04;;;;;;;13.60;8.90;;;-3.60;99.90;;;;;;5099283;28;20192;-76
2021/01/15 06:57:37;;;;;;;18.15;12.05;;;-3.60;99.90;;;;;;5099197;28;20503;-76
2021/01/15 07:00:10;;;;;;;34.00;16.25;;;-3.70;99.90;;;;;;5098408;28;20193;-77
2021/01/15 07:03:25;;;;;;;11.90;7.93;;;-3.70;99.90;;;;;;5096852;28;20688;-81
2021/01/15 07:05:59;;;;;;;12.93;7.70;;;-3.70;99.90;;;;;;5116160;28;20669;-75
2021/01/15 07:08:31;;;;;;;13.93;8.20;;;-3.70;99.90;;;;;;5097936;28;20494;-74
2021/01/15 07:11:00;;;;;;;12.15;7.97;;;-3.80;99.90;;;;;;5093433;28;20524;-76
2021/01/15 07:16:29;;;;;;;14.60;8.73;;;-3.80;99.90;;;;;;5070271;28;20620;-75
2021/01/15 07:19:14;;;;;;;15.38;8.00;;;-3.70;99.90;;;;;;5086889;28;20443;-76
2021/01/15 07:22:06;;;;;;;12.98;8.40;;;-3.70;99.90;;;;;;5107073;28;20218;-75
2021/01/15 07:24:38;;;;;;;15.70;7.97;;;-3.60;99.90;;;;;;5105856;28;20563;-75
2021/01/15 07:27:08;;;;;;;11.53;8.17;;;-3.40;99.90;;;;;;5088231;28;21041;-76
2021/01/15 07:29:43;;;;;;;18.53;9.53;;;-3.30;99.90;;;;;;5106695;28;20455;-77
2021/01/15 07:32:23;;;;;;;14.70;8.00;;;-3.20;99.90;;;;;;5106318;28;20540;-77
2021/01/15 07:34:54;;;;;;;11.27;8.10;;;-3.10;99.90;;;;;;5074246;28;20515;-76
2021/01/15 07:37:26;;;;;;;10.57;6.77;;;-3.10;99.90;;;;;;5073974;28;20874;-75
2021/01/15 07:40:10;;;;;;;13.33;6.70;;;-3.00;99.90;;;;;;5081917;28;20477;-75
2021/01/15 07:42:42;;;;;;;15.17;8.67;;;-2.90;99.90;;;;;;5066797;28;20510;-75
2021/01/15 07:45:42;;;;;;;10.97;7.17;;;-2.80;99.90;;;;;;5074126;28;20516;-76
2021/01/15 07:48:10;;;;;;;11.33;7.50;;;-2.80;99.90;;;;;;5091396;28;20464;-75
2021/01/15 07:50:40;;;;;;;10.77;7.50;;;-2.70;99.90;;;;;;5109982;28;20495;-76
2021/01/15 07:53:21;;;;;;;14.70;8.17;;;-2.50;99.90;;;;;;5091047;28;21051;-76
2021/01/15 07:55:50;;;;;;;15.90;9.00;;;-2.50;99.90;;;;;;5090721;28;21832;-75
2021/01/15 07:58:20;;;;;;;19.20;10.10;;;-2.50;99.90;;;;;;5111226;27;20817;-76
2021/01/15 08:00:48;;;;;;;17.00;8.93;;;-2.40;99.90;;;;;;5089244;28;20557;-77
2021/01/15 08:06:11;;;;;;;17.90;9.30;;;-2.30;99.90;;;;;;5090560;28;20483;-76
2021/01/15 08:08:58;;;;;;;12.57;8.30;;;-2.30;99.90;;;;;;5091465;28;20812;-78
2021/01/15 08:11:27;;;;;;;8.70;6.10;;;-2.10;99.90;;;;;;5098204;28;20509;-75
2021/01/15 08:14:10;;;;;;;14.30;7.57;;;-2.10;99.90;;;;;;5098980;28;20495;-75
2021/01/15 08:16:38;;;;;;;9.67;6.90;;;-1.90;99.90;;;;;;5108514;28;20471;-76
2021/01/15 08:19:11;;;;;;;14.53;7.73;;;-1.90;99.90;;;;;;5089884;28;20504;-75
2021/01/15 08:21:42;;;;;;;13.47;7.40;;;-1.80;99.90;;;;;;5109109;28;20478;-76
2021/01/15 08:24:11;;;;;;;11.17;7.20;;;-1.70;99.90;;;;;;5109033;28;20813;-75
2021/01/15 08:26:47;;;;;;;10.63;7.27;;;-1.60;99.90;;;;;;5090182;28;20600;-76
2021/01/15 08:29:15;;;;;;;12.27;7.10;;;-1.50;99.90;;;;;;5109227;28;20557;-76
2021/01/15 08:31:43;;;;;;;10.30;6.63;;;-1.40;99.90;;;;;;5089148;28;20471;-76
2021/01/15 08:34:14;;;;;;;11.57;6.83;;;-1.50;99.90;;;;;;5109300;28;20459;-76
2021/01/15 08:36:44;;;;;;;16.87;8.37;;;-1.40;99.90;;;;;;5090282;28;20464;-75
2021/01/15 08:39:13;;;;;;;9.27;6.63;;;-1.40;99.90;;;;;;5074294;28;20990;-74
2021/01/15 08:41:41;;;;;;;9.53;7.00;;;-1.40;99.90;;;;;;5108779;28;21639;-76
2021/01/15 08:44:14;;;;;;;13.83;7.80;;;-1.30;99.90;;;;;;5109309;28;20452;-75
2021/01/15 08:46:42;;;;;;;14.87;8.60;;;-1.30;99.90;;;;;;5089648;28;20575;-75
2021/01/15 08:49:11;;;;;;;10.40;7.10;;;-1.20;99.90;;;;;;5108752;28;21548;-77
2021/01/15 08:51:39;;;;;;;7.90;5.90;;;-1.10;99.90;;;;;;5072349;28;20492;-76
2021/01/15 08:54:10;;;;;;;9.97;6.80;;;-1.00;99.90;;;;;;5089537;28;20463;-76
2021/01/15 08:56:40;;;;;;;13.50;8.53;;;-1.00;99.90;;;;;;5073113;28;20569;-75
2021/01/15 08:59:10;;;;;;;13.37;7.73;;;-1.00;99.90;;;;;;5107988;28;20560;-76
2021/01/15 09:01:39;;;;;;;11.83;7.73;;;-0.80;99.90;;;;;;5088965;28;20543;-76
2021/01/15 09:04:09;;;;;;;10.77;7.70;;;-0.50;99.90;;;;;;5088900;28;20491;-75
2021/01/15 09:06:42;;;;;;;12.70;7.60;;;-0.20;99.90;;;;;;5073203;28;20529;-76
2021/01/15 09:09:12;;;;;;;12.27;7.17;;;0.10;99.90;;;;;;5089706;28;20458;-76
2021/01/15 09:11:41;;;;;;;10.90;7.30;;;0.20;99.90;;;;;;5108422;28;21112;-76
2021/01/15 09:14:12;;;;;;;10.90;7.83;;;0.30;99.90;;;;;;5088334;28;20495;-77
2021/01/15 09:16:41;;;;;;;13.10;8.37;;;0.30;99.90;;;;;;5072045;28;22418;-76
2021/01/15 09:19:12;;;;;;;13.97;8.53;;;0.30;99.90;;;;;;5108397;28;21570;-76
2021/01/15 09:22:18;;;;;;;12.10;7.70;;;0.30;99.90;;;;;;5107421;28;20512;-77
2021/01/15 09:24:47;;;;;;;11.10;8.53;;;0.50;99.90;;;;;;5072467;28;20455;-77
2021/01/15 09:27:22;;;;;;;17.00;9.17;;;0.60;99.90;;;;;;5107382;28;20490;-76
2021/01/15 09:29:51;;;;;;;15.43;8.40;;;0.50;99.90;;;;;;5073929;28;20475;-76
2021/01/15 09:32:19;;;;;;;15.83;8.53;;;0.70;99.90;;;;;;5088688;28;20480;-75
2021/01/15 09:37:38;;;;;;;10.67;7.77;;;0.90;99.90;;;;;;5091170;28;20479;-76
2021/01/15 09:40:07;;;;;;;12.70;7.13;;;0.90;99.90;;;;;;5107516;28;20578;-76
2021/01/15 09:42:36;;;;;;;13.87;8.23;;;1.00;99.90;;;;;;5077767;28;20459;-77
2021/01/15 09:45:06;;;;;;;10.70;6.93;;;1.30;99.90;;;;;;5071481;28;20499;-75
2021/01/15 09:47:34;;;;;;;12.70;8.97;;;1.50;99.90;;;;;;5106053;28;20472;-75
2021/01/15 09:50:02;;;;;;;10.20;7.80;;;1.50;99.90;;;;;;5071171;28;20516;-76
2021/01/15 09:52:54;;;;;;;12.10;7.73;;;1.60;99.90;;;;;;5087714;28;21094;-75
2021/01/15 09:55:22;;;;;;;10.33;8.00;;;2.00;99.90;;;;;;5105994;28;20451;-76
2021/01/15 09:58:17;;;;;;;9.30;7.17;;;2.10;99.90;;;;;;5107506;27;20481;-76
2021/01/15 10:00:45;;;;;;;15.43;7.67;;;2.30;99.90;;;;;;5114793;28;20466;-76
2021/01/15 10:03:12;;;;;;;10.40;7.60;;;2.10;99.90;;;;;;5072401;28;20463;-76
2021/01/15 10:05:41;;;;;;;9.43;7.60;;;1.90;99.90;;;;;;5088161;28;20486;-76
2021/01/15 10:08:11;;;;;;;10.87;7.50;;;1.80;99.90;;;;;;5107105;28;20481;-76
2021/01/15 10:10:39;;;;;;;8.47;6.80;;;2.00;99.90;;;;;;5086834;28;20463;-76
2021/01/15 10:13:06;;;;;;;9.23;6.70;;;2.10;99.90;;;;;;5071959;28;20974;-75
2021/01/15 10:15:37;;;;;;;9.93;8.20;;;2.30;99.90;;;;;;5111481;28;20460;-74
2021/01/15 10:18:06;;;;;;;8.70;7.37;;;2.30;99.90;;;;;;5099413;28;20603;-75
2021/01/15 10:20:33;;;;;;;12.20;8.60;;;2.30;99.90;;;;;;5107683;28;20594;-74
2021/01/15 10:23:03;;;;;;;14.07;8.00;;;2.30;99.90;;;;;;5088586;28;20542;-75
2021/01/15 10:25:31;;;;;;;11.43;8.00;;;2.40;99.90;;;;;;5107429;28;20586;-75
2021/01/15 10:27:58;;;;;;;11.30;6.93;;;2.50;99.90;;;;;;5107163;28;20455;-75
2021/01/15 10:30:26;;;;;;;7.97;6.20;;;2.60;99.90;;;;;;5104988;28;20467;-75
2021/01/15 10:32:58;;;;;;;7.90;6.63;;;2.50;99.90;;;;;;5087703;28;20536;-75
2021/01/15 10:35:26;;;;;;;10.77;7.70;;;2.30;99.90;;;;;;5108874;28;20487;-75
2021/01/15 10:37:54;;;;;;;9.97;7.00;;;2.10;99.90;;;;;;5121151;28;20447;-75
2021/01/15 10:40:23;;;;;;;10.60;7.00;;;2.10;99.90;;;;;;5093309;28;20452;-76
2021/01/15 10:42:50;;;;;;;9.57;7.87;;;2.30;99.90;;;;;;5071939;28;21087;-75
2021/01/15 10:45:18;;;;;;;9.37;7.07;;;2.60;99.90;;;;;;5086927;28;20490;-75
2021/01/15 10:47:45;;;;;;;14.20;7.97;;;2.70;99.90;;;;;;5070855;28;20576;-76
2021/01/15 10:50:17;;;;;;;11.00;8.20;;;2.80;99.90;;;;;;5105650;28;20476;-75
2021/01/15 10:52:51;;;;;;;13.23;8.20;;;3.10;99.90;;;;;;5106227;28;20458;-75
2021/01/15 10:55:20;;;;;;;11.00;7.73;;;3.00;99.90;;;;;;5087968;28;20471;-75
2021/01/15 10:57:49;;;;;;;14.17;9.07;;;3.00;99.90;;;;;;5072725;28;20517;-74
2021/01/15 11:00:17;;;;;;;10.50;7.83;;;3.10;99.90;;;;;;5124267;28;20483;-75
2021/01/15 11:02:51;;;;;;;10.33;7.30;;;3.30;99.90;;;;;;5090929;28;20553;-75
2021/01/15 11:05:20;;;;;;;10.77;7.97;;;3.50;99.90;;;;;;5091016;27;20820;-75
2021/01/15 11:07:47;;;;;;;13.60;7.50;;;3.80;99.90;;;;;;5112424;27;20444;-75
2021/01/15 11:10:16;;;;;;;18.50;8.40;;;4.20;99.90;;;;;;5130794;27;20547;-74
2021/01/15 11:12:44;;;;;;;11.40;8.03;;;4.30;99.90;;;;;;5112171;27;20440;-75
2021/01/15 11:15:12;;;;;;;9.77;7.40;;;3.90;99.90;;;;;;5111320;27;20463;-76
2021/01/15 11:17:41;;;;;;;9.10;6.17;;;3.80;99.90;;;;;;5129325;27;20448;-76
2021/01/15 11:20:09;;;;;;;11.90;7.40;;;3.70;99.90;;;;;;5111545;27;20648;-74
2021/01/15 11:22:44;;;;;;;13.10;7.90;;;3.60;99.90;;;;;;5130379;27;20474;-75
2021/01/15 11:25:13;;;;;;;17.30;12.20;;;3.70;99.90;;;;;;5130532;27;20791;-76
2021/01/15 11:27:43;;;;;;;10.17;8.00;;;3.80;99.90;;;;;;5112436;27;21733;-75
2021/01/15 11:30:13;;;;;;;13.83;8.90;;;3.60;99.90;;;;;;5130894;27;20954;-75
2021/01/15 11:32:41;;;;;;;13.27;7.77;;;3.40;99.90;;;;;;5111771;27;20477;-74
2021/01/15 11:35:09;;;;;;;11.07;7.93;;;2.90;99.90;;;;;;5131031;27;20469;-75
2021/01/15 11:37:37;;;;;;;12.13;8.60;;;2.60;99.90;;;;;;5112171;27;20553;-76
2021/01/15 11:40:08;;;;;;;10.07;7.47;;;2.60;99.90;;;;;;5093958;27;20490;-76
2021/01/15 11:42:35;;;;;;;13.20;8.67;;;2.50;99.90;;;;;;5110671;27;21094;-75
2021/01/15 11:45:04;;;;;;;13.30;8.70;;;2.50;99.90;;;;;;5093192;27;20484;-75
2021/01/15 11:47:33;;;;;;;11.87;8.57;;;2.70;99.90;;;;;;5094002;27;20497;-75
2021/01/15 11:50:00;;;;;;;11.07;8.57;;;2.60;99.90;;;;;;5126659;27;20454;-75
2021/01/15 11:52:28;;;;;;;17.73;9.07;;;2.40;99.90;;;;;;5111286;27;20478;-76
2021/01/15 11:54:56;;;;;;;16.90;8.70;;;2.30;99.90;;;;;;5129423;27;20462;-76
2021/01/15 11:57:24;;;;;;;12.57;7.57;;;2.30;99.90;;;;;;5111744;27;20471;-76
2021/01/15 11:59:55;;;;;;;14.10;7.90;;;2.30;99.90;;;;;;5099162;28;20468;-76
2021/01/15 12:02:23;;;;;;;19.40;9.97;;;2.30;99.90;;;;;;5071759;28;21657;-75
2021/01/15 12:04:51;;;;;;;14.13;9.63;;;2.30;99.90;;;;;;5088555;28;20471;-76
2021/01/15 12:07:18;;;;;;;13.07;7.53;;;2.50;99.90;;;;;;5089160;28;20487;-76
2021/01/15 12:09:46;;;;;;;11.40;8.00;;;2.30;99.90;;;;;;5072094;28;20466;-75
2021/01/15 12:12:14;;;;;;;13.30;8.20;;;2.50;99.90;;;;;;5106713;28;21035;-75
2021/01/15 12:14:42;;;;;;;11.37;7.30;;;2.20;99.90;;;;;;5088637;28;20461;-75
2021/01/15 12:17:09;;;;;;;11.50;8.43;;;2.20;99.90;;;;;;5069674;28;20903;-75
2021/01/15 12:19:37;;;;;;;10.03;7.17;;;2.20;99.90;;;;;;5107527;28;20451;-75
2021/01/15 12:22:04;;;;;;;14.27;7.23;;;2.30;99.90;;;;;;5071787;28;20874;-75
2021/01/15 12:24:34;;;;;;;11.87;8.27;;;2.10;99.90;;;;;;5091053;28;20491;-75
2021/01/15 12:27:05;;;;;;;14.30;9.27;;;1.90;99.90;;;;;;5108096;28;20483;-75
2021/01/15 12:29:33;;;;;;;22.23;12.10;;;2.10;99.90;;;;;;5073601;28;21077;-75
2021/01/15 12:32:01;;;;;;;15.27;9.87;;;2.20;99.90;;;;;;5087493;28;20666;-76
2021/01/15 12:34:30;;;;;;;11.23;8.23;;;2.00;99.90;;;;;;5089466;28;20546;-76
2021/01/15 12:36:58;;;;;;;10.33;8.70;;;1.90;99.90;;;;;;5072999;28;20464;-75
2021/01/15 12:39:27;;;;;;;8.90;7.50;;;1.80;99.90;;;;;;5073266;28;20452;-75
2021/01/15 12:41:55;;;;;;;10.13;7.47;;;1.60;99.90;;;;;;5107802;28;20509;-75
2021/01/15 12:44:22;;;;;;;11.73;7.87;;;1.50;99.90;;;;;;5089390;28;20558;-75
2021/01/15 12:46:52;;;;;;;12.83;7.83;;;1.40;99.90;;;;;;5108752;28;20483;-77
2021/01/15 12:49:22;;;;;;;12.80;8.50;;;1.40;99.90;;;;;;5090597;28;20767;-76
2021/01/15 12:51:49;;;;;;;11.23;8.00;;;1.30;99.90;;;;;;5095403;28;20832;-76
2021/01/15 12:54:17;;;;;;;11.27;8.87;;;1.30;99.90;;;;;;5077537;28;21470;-75
2021/01/15 12:56:44;;;;;;;18.70;8.50;;;1.30;99.90;;;;;;5109224;28;20547;-75
2021/01/15 12:59:14;;;;;;;14.87;8.70;;;1.40;99.90;;;;;;5113206;27;20500;-76
2021/01/15 13:01:43;;;;;;;12.67;8.33;;;1.50;99.90;;;;;;5104366;28;20824;-76
2021/01/15 13:04:13;;;;;;;8.97;6.63;;;1.50;99.90;;;;;;5089787;28;20463;-76
2021/01/15 13:06:42;;;;;;;12.83;7.87;;;1.50;99.90;;;;;;5107169;28;20540;-75
2021/01/15 13:09:11;;;;;;;12.27;8.40;;;1.50;99.90;;;;;;5072460;28;20448;-76
2021/01/15 13:11:39;;;;;;;13.13;8.10;;;1.60;99.90;;;;;;5107127;28;20455;-76
2021/01/15 13:14:06;;;;;;;14.07;7.60;;;1.60;99.90;;;;;;5073245;28;20452;-76